createdAt,value
2023-03-30T00:00:56.581Z,10.70
2023-03-30T00:03:27.433Z,10.70
2023-03-30T00:05:57.492Z,10.60
2023-03-30T00:08:28.320Z,10.60
2023-03-30T00:11:02.068Z,10.60
2023-03-30T00:13:31.318Z,10.50
2023-03-30T00:15:59.339Z,10.50
2023-03-30T00:18:29.889Z,10.50
2023-03-30T00:20:59.175Z,10.50
2023-03-30T00:23:27.425Z,10.40
2023-03-30T00:25:55.567Z,10.40
2023-03-30T00:28:23.520Z,10.40
2023-03-30T00:30:52.877Z,10.30
2023-03-30T00:33:30.300Z,10.30
2023-03-30T00:36:03.883Z,10.20
2023-03-30T00:38:31.897Z,10.20
2023-03-30T00:41:01.966Z,10.20
2023-03-30T00:43:30.896Z,10.20
2023-03-30T00:45:58.986Z,10.20
2023-03-30T00:48:29.791Z,10.20
2023-03-30T00:51:00.852Z,10.20
2023-03-30T00:53:33.376Z,10.10
2023-03-30T00:56:03.633Z,10.10
2023-03-30T00:58:32.661Z,10.10
2023-03-30T01:01:03.541Z,10.10
2023-03-30T01:03:34.020Z,10.00
2023-03-30T01:06:04.529Z,10.00
2023-03-30T01:08:34.387Z,9.90
2023-03-30T01:11:03.422Z,9.90
2023-03-30T01:13:33.264Z,9.80
2023-03-30T01:16:13.173Z,9.80
2023-03-30T01:18:49.673Z,9.80
2023-03-30T01:22:04.722Z,9.70
2023-03-30T01:25:11.433Z,9.70
2023-03-30T01:28:09.799Z,9.60
2023-03-30T01:30:56.043Z,9.50
2023-03-30T01:33:56.099Z,9.50
2023-03-30T01:36:45.699Z,9.50
2023-03-30T01:39:33.456Z,9.50
2023-03-30T01:42:09.324Z,9.50
2023-03-30T01:44:44.327Z,9.50
2023-03-30T01:47:20.388Z,9.40
2023-03-30T01:49:57.285Z,9.40
2023-03-30T01:52:31.817Z,9.30
2023-03-30T01:55:04.697Z,9.30
2023-03-30T01:57:40.891Z,9.30
2023-03-30T02:00:13.369Z,9.30
2023-03-30T02:02:45.317Z,9.20
2023-03-30T02:05:17.920Z,9.20
2023-03-30T02:07:50.874Z,9.10
2023-03-30T02:10:23.218Z,9.00
2023-03-30T02:12:53.108Z,9.00
2023-03-30T02:15:21.547Z,8.90
2023-03-30T02:17:49.775Z,8.90
2023-03-30T02:20:18.948Z,8.90
2023-03-30T02:22:47.666Z,8.80
2023-03-30T02:25:17.405Z,8.90
2023-03-30T02:27:46.745Z,8.90
2023-03-30T02:30:15.506Z,8.90
2023-03-30T02:32:46.446Z,9.00
2023-03-30T02:35:27.973Z,9.00
2023-03-30T02:38:24.440Z,9.10
2023-03-30T02:41:00.733Z,9.10
2023-03-30T02:43:38.428Z,9.20
2023-03-30T02:46:21.587Z,9.30
2023-03-30T02:49:00.814Z,9.30
2023-03-30T02:51:40.014Z,9.30
2023-03-30T02:54:15.968Z,9.40
2023-03-30T02:56:48.389Z,9.40
2023-03-30T02:59:22.680Z,9.40
2023-03-30T03:01:54.268Z,9.40
2023-03-30T03:04:24.451Z,9.40
2023-03-30T03:06:55.807Z,9.50
2023-03-30T03:09:26.135Z,9.40
2023-03-30T03:11:54.467Z,9.40
2023-03-30T03:14:26.585Z,9.40
2023-03-30T03:16:55.443Z,9.50
2023-03-30T03:19:23.411Z,9.50
2023-03-30T03:21:51.709Z,9.50
2023-03-30T03:24:19.737Z,9.50
2023-03-30T03:26:47.666Z,9.60
2023-03-30T03:29:15.824Z,9.60
2023-03-30T03:31:45.167Z,9.70
2023-03-30T03:34:13.136Z,9.70
2023-03-30T03:36:41.076Z,9.80
2023-03-30T03:39:09.448Z,9.80
2023-03-30T03:41:37.366Z,9.80
2023-03-30T03:44:05.338Z,9.80
2023-03-30T03:46:33.331Z,9.90
2023-03-30T03:49:02.702Z,9.80
2023-03-30T03:51:32.831Z,9.80
2023-03-30T03:54:01.763Z,9.80
2023-03-30T03:56:29.679Z,9.80
2023-03-30T03:58:57.658Z,9.80
2023-03-30T04:01:25.598Z,9.80
2023-03-30T04:03:53.554Z,9.80
2023-03-30T04:06:23.192Z,9.80
2023-03-30T04:08:51.499Z,9.70
2023-03-30T04:11:19.617Z,9.70
2023-03-30T04:13:49.011Z,9.80
2023-03-30T04:16:17.080Z,9.80
2023-03-30T04:18:45.061Z,9.80
2023-03-30T04:21:14.116Z,9.80
2023-03-30T04:23:45.812Z,9.80
2023-03-30T04:26:15.593Z,9.80
2023-03-30T04:28:43.582Z,9.80
2023-03-30T04:31:13.034Z,9.80
2023-03-30T04:33:51.884Z,9.80
2023-03-30T04:36:20.777Z,9.70
2023-03-30T04:38:58.606Z,9.70
2023-03-30T04:41:33.304Z,9.70
2023-03-30T04:44:03.175Z,9.80
2023-03-30T04:46:31.374Z,9.80
2023-03-30T04:48:59.751Z,9.90
2023-03-30T04:51:27.997Z,10.00
2023-03-30T04:53:57.540Z,10.00
2023-03-30T04:56:26.238Z,10.00
2023-03-30T04:58:54.220Z,10.10
2023-03-30T05:01:22.638Z,10.10
2023-03-30T05:03:50.953Z,10.10
2023-03-30T05:06:18.986Z,10.10
2023-03-30T05:08:46.896Z,10.10
2023-03-30T05:11:16.344Z,10.10
2023-03-30T05:13:44.272Z,10.00
2023-03-30T05:16:12.233Z,10.10
2023-03-30T05:18:40.170Z,10.10
2023-03-30T05:21:08.564Z,10.10
2023-03-30T05:23:36.696Z,10.10
2023-03-30T05:26:04.964Z,10.10
2023-03-30T05:28:34.412Z,10.20
2023-03-30T05:31:02.555Z,10.20
2023-03-30T05:33:31.019Z,10.20
2023-03-30T05:35:59.000Z,10.30
2023-03-30T05:38:27.161Z,10.30
2023-03-30T05:40:55.420Z,10.30
2023-03-30T05:43:23.526Z,10.30
2023-03-30T05:45:52.878Z,10.30
2023-03-30T05:48:21.008Z,10.40
2023-03-30T05:50:49.158Z,10.40
2023-03-30T05:53:17.482Z,10.50
2023-03-30T05:55:46.779Z,10.50
2023-03-30T05:58:15.216Z,10.50
2023-03-30T06:00:44.064Z,10.50
2023-03-30T06:03:13.548Z,10.50
2023-03-30T06:05:43.505Z,10.50
2023-03-30T06:08:12.234Z,10.50
2023-03-30T06:10:40.176Z,10.50
2023-03-30T06:13:08.332Z,10.50
2023-03-30T06:15:36.252Z,10.50
2023-03-30T06:18:04.957Z,10.50
2023-03-30T06:20:34.314Z,10.60
2023-03-30T06:23:02.291Z,10.60
2023-03-30T06:25:30.996Z,10.60
2023-03-30T06:27:59.163Z,10.60
2023-03-30T06:30:27.156Z,10.70
2023-03-30T06:32:55.409Z,10.70
2023-03-30T06:35:23.412Z,10.70
2023-03-30T06:37:52.769Z,10.70
2023-03-30T06:40:20.875Z,10.70
2023-03-30T06:42:48.824Z,10.80
2023-03-30T06:45:17.030Z,10.80
2023-03-30T06:47:45.084Z,10.70
2023-03-30T06:50:13.434Z,10.80
2023-03-30T06:52:41.531Z,10.80
2023-03-30T06:55:10.957Z,10.80
2023-03-30T06:57:38.971Z,10.80
2023-03-30T07:00:13.368Z,10.80
2023-03-30T07:02:41.657Z,10.80
2023-03-30T07:05:10.064Z,10.80
2023-03-30T07:07:39.177Z,10.80
2023-03-30T07:10:10.470Z,10.90
2023-03-30T07:12:41.008Z,10.80
2023-03-30T07:15:09.978Z,10.80
2023-03-30T07:17:38.101Z,10.80
2023-03-30T07:20:08.248Z,10.80
2023-03-30T07:22:36.697Z,10.80
2023-03-30T07:25:05.245Z,10.80
2023-03-30T07:27:33.215Z,10.90
2023-03-30T07:30:13.746Z,10.90
2023-03-30T07:32:49.204Z,11.00
2023-03-30T07:35:17.481Z,11.20
2023-03-30T07:37:45.832Z,11.30
2023-03-30T07:40:13.878Z,11.40
2023-03-30T07:42:42.303Z,11.40
2023-03-30T07:45:15.618Z,11.40
2023-03-30T07:47:44.707Z,11.50
2023-03-30T07:50:12.839Z,11.60
2023-03-30T07:52:40.838Z,11.80
2023-03-30T07:55:09.321Z,11.80
2023-03-30T07:57:37.664Z,11.80
2023-03-30T08:00:08.142Z,11.80
2023-03-30T08:02:37.961Z,11.80
2023-03-30T08:05:06.608Z,11.80
2023-03-30T08:07:35.488Z,11.90
2023-03-30T08:10:03.519Z,12.00
2023-03-30T08:12:31.593Z,12.10
2023-03-30T08:14:59.537Z,12.10
2023-03-30T08:17:27.590Z,12.20
2023-03-30T08:19:57.252Z,12.10
2023-03-30T08:22:25.422Z,12.10
2023-03-30T08:24:53.356Z,12.30
2023-03-30T08:27:21.370Z,12.50
2023-03-30T08:29:49.348Z,12.70
2023-03-30T08:32:17.309Z,12.90
2023-03-30T08:34:45.250Z,13.00
2023-03-30T08:37:14.631Z,13.10
2023-03-30T08:39:42.620Z,13.10
2023-03-30T08:42:26.223Z,13.20
2023-03-30T08:44:56.459Z,13.20
2023-03-30T08:47:34.715Z,13.60
2023-03-30T08:50:08.544Z,13.80
2023-03-30T08:52:38.868Z,14.10
2023-03-30T08:55:07.820Z,14.50
2023-03-30T08:57:47.960Z,14.70
2023-03-30T09:00:27.924Z,14.90
2023-03-30T09:03:07.099Z,15.00
2023-03-30T09:05:41.591Z,15.10
2023-03-30T09:08:18.372Z,15.30
2023-03-30T09:10:52.720Z,15.30
2023-03-30T09:13:24.547Z,15.20
2023-03-30T09:15:58.662Z,15.10
2023-03-30T09:18:30.492Z,15.10
2023-03-30T09:21:01.232Z,15.00
2023-03-30T09:23:32.094Z,15.00
2023-03-30T09:26:07.558Z,15.10
2023-03-30T09:28:43.490Z,15.00
2023-03-30T09:31:19.281Z,15.10
2023-03-30T09:33:58.552Z,15.10
2023-03-30T09:36:33.446Z,15.00
2023-03-30T09:39:02.958Z,15.00
2023-03-30T09:41:41.540Z,14.90
2023-03-30T09:44:19.959Z,14.90
2023-03-30T09:46:49.959Z,15.00
2023-03-30T09:49:18.408Z,14.90
2023-03-30T09:52:02.433Z,14.90
2023-03-30T09:54:38.908Z,15.00
2023-03-30T09:57:07.450Z,15.20
2023-03-30T09:59:37.913Z,15.30
2023-03-30T10:02:19.855Z,15.40
2023-03-30T10:05:03.266Z,15.50
2023-03-30T10:07:36.451Z,15.50
2023-03-30T10:10:16.355Z,15.60
2023-03-30T10:12:45.897Z,15.70
2023-03-30T10:15:17.893Z,15.80
2023-03-30T10:17:48.438Z,16.10
2023-03-30T10:20:26.733Z,16.30
2023-03-30T10:22:56.743Z,16.40
2023-03-30T10:25:31.520Z,16.30
2023-03-30T10:28:04.718Z,16.30
2023-03-30T10:30:34.704Z,16.10
2023-03-30T10:33:03.987Z,16.10
2023-03-30T10:35:36.664Z,16.20
2023-03-30T10:38:06.360Z,16.40
2023-03-30T10:40:37.790Z,16.60
2023-03-30T10:43:11.951Z,16.60
2023-03-30T10:45:44.976Z,16.60
2023-03-30T10:48:29.040Z,16.40
2023-03-30T10:51:06.337Z,15.90
2023-03-30T10:53:42.756Z,15.70
2023-03-30T10:56:23.381Z,15.40
2023-03-30T10:59:21.069Z,15.10
2023-03-30T11:01:59.972Z,14.90
2023-03-30T11:04:33.341Z,14.70
2023-03-30T11:07:02.870Z,14.50
2023-03-30T11:09:33.737Z,14.20
2023-03-30T11:12:06.737Z,14.00
2023-03-30T11:14:42.473Z,13.80
2023-03-30T11:17:17.747Z,13.70
2023-03-30T11:19:50.813Z,13.60
2023-03-30T11:22:30.776Z,13.60
2023-03-30T11:25:02.297Z,13.70
2023-03-30T11:27:36.641Z,13.70
2023-03-30T11:30:11.094Z,13.70
2023-03-30T11:32:44.823Z,13.60
2023-03-30T11:35:18.340Z,13.50
2023-03-30T11:37:51.160Z,13.40
2023-03-30T11:40:22.379Z,13.30
2023-03-30T11:42:53.634Z,13.10
2023-03-30T11:46:03.899Z,12.80
2023-03-30T11:49:05.798Z,12.60
2023-03-30T11:51:49.616Z,12.60
2023-03-30T11:54:44.987Z,12.60
2023-03-30T11:57:30.887Z,12.80
2023-03-30T12:00:15.170Z,13.00
2023-03-30T12:02:49.930Z,13.10
2023-03-30T12:05:22.823Z,13.10
2023-03-30T12:07:57.783Z,13.10
2023-03-30T12:10:32.500Z,13.20
2023-03-30T12:13:01.296Z,13.20
2023-03-30T12:15:41.381Z,13.30
2023-03-30T12:18:20.368Z,13.60
2023-03-30T12:20:53.299Z,13.70
2023-03-30T12:23:34.598Z,13.70
2023-03-30T12:26:17.852Z,13.70
2023-03-30T12:31:21.286Z,13.70
2023-03-30T12:33:50.933Z,13.80
2023-03-30T12:36:34.349Z,13.80
2023-03-30T12:39:03.885Z,13.90
2023-03-30T12:41:42.459Z,14.00
2023-03-30T12:44:36.458Z,14.00
2023-03-30T12:47:34.416Z,13.90
2023-03-30T12:50:14.364Z,13.90
2023-03-30T12:52:54.898Z,14.00
2023-03-30T12:55:38.324Z,14.10
2023-03-30T12:58:27.391Z,14.10
2023-03-30T13:01:13.484Z,14.20
2023-03-30T13:03:52.449Z,14.10
2023-03-30T13:06:26.593Z,14.20
2023-03-30T13:09:03.329Z,14.30
2023-03-30T13:11:45.521Z,14.50
2023-03-30T13:14:39.186Z,14.50
2023-03-30T13:17:12.611Z,14.70
2023-03-30T13:19:49.575Z,14.70
2023-03-30T13:22:36.519Z,14.80
2023-03-30T13:25:29.856Z,14.70
2023-03-30T13:28:01.183Z,14.70
2023-03-30T13:30:30.614Z,14.60
2023-03-30T13:33:12.244Z,14.60
2023-03-30T13:35:51.835Z,14.70
2023-03-30T13:38:35.338Z,14.80
2023-03-30T13:41:26.252Z,14.80
2023-03-30T13:44:08.430Z,14.70
2023-03-30T13:46:43.428Z,14.90
2023-03-30T13:49:21.177Z,14.90
2023-03-30T13:51:50.732Z,14.90
2023-03-30T13:54:22.063Z,15.10
2023-03-30T13:56:56.530Z,15.10
2023-03-30T13:59:28.500Z,15.20
2023-03-30T14:02:01.010Z,15.30
2023-03-30T14:04:30.767Z,15.40
2023-03-30T14:07:06.534Z,15.40
2023-03-30T14:09:34.888Z,15.40
2023-03-30T14:12:06.073Z,15.40
2023-03-30T14:14:36.638Z,15.50
2023-03-30T14:17:15.720Z,15.40
2023-03-30T14:19:54.487Z,15.40
2023-03-30T14:22:27.579Z,15.40
2023-03-30T14:24:59.628Z,15.50
2023-03-30T14:27:33.395Z,15.50
2023-03-30T14:30:01.312Z,15.70
2023-03-30T14:32:29.482Z,15.60
2023-03-30T14:34:57.464Z,15.60
2023-03-30T14:37:27.326Z,15.60
2023-03-30T14:39:57.673Z,15.60
2023-03-30T14:42:27.896Z,15.50
2023-03-30T14:44:57.808Z,15.40
2023-03-30T14:47:27.677Z,15.30
2023-03-30T14:49:58.534Z,15.10
2023-03-30T14:52:31.952Z,15.10
2023-03-30T14:55:06.000Z,15.00
2023-03-30T14:57:38.863Z,14.90
2023-03-30T15:00:21.073Z,15.10
2023-03-30T15:02:52.400Z,15.10
2023-03-30T15:05:23.319Z,15.00
2023-03-30T15:07:53.848Z,14.90
2023-03-30T15:10:27.619Z,14.80
2023-03-30T15:12:58.240Z,14.80
2023-03-30T15:15:30.773Z,14.60
2023-03-30T15:17:59.266Z,14.60
2023-03-30T15:20:29.696Z,14.60
2023-03-30T15:23:00.778Z,14.60
2023-03-30T15:25:32.467Z,14.50
2023-03-30T15:28:04.640Z,14.40
2023-03-30T15:30:36.472Z,14.40
2023-03-30T15:33:05.848Z,14.30
2023-03-30T15:35:35.681Z,14.40
2023-03-30T15:38:16.739Z,14.40
2023-03-30T15:40:46.121Z,14.30
2023-03-30T15:43:19.783Z,14.40
2023-03-30T15:45:51.649Z,14.50
2023-03-30T15:48:24.362Z,14.40
2023-03-30T15:50:56.367Z,14.30
2023-03-30T15:53:35.007Z,14.20
2023-03-30T15:56:04.458Z,14.10
2023-03-30T15:58:35.434Z,14.10
2023-03-30T16:01:06.022Z,14.00
2023-03-30T16:03:39.302Z,13.90
2023-03-30T16:06:08.683Z,13.90
2023-03-30T16:08:41.958Z,13.80
2023-03-30T16:11:10.797Z,13.70
2023-03-30T16:13:42.550Z,13.70
2023-03-30T16:16:11.113Z,13.80
2023-03-30T16:18:41.304Z,13.70
2023-03-30T16:21:12.350Z,13.70
2023-03-30T16:23:41.793Z,13.70
2023-03-30T16:26:12.120Z,13.70
2023-03-30T16:28:42.652Z,13.60
2023-03-30T16:31:17.178Z,13.60
2023-03-30T16:33:45.275Z,13.60
2023-03-30T16:36:16.237Z,13.60
2023-03-30T16:38:46.300Z,13.60
2023-03-30T16:41:18.330Z,13.60
2023-03-30T16:43:46.328Z,13.70
2023-03-30T16:46:15.567Z,13.70
2023-03-30T16:48:44.041Z,13.60
2023-03-30T16:51:12.575Z,13.50
2023-03-30T16:53:41.459Z,13.40
2023-03-30T16:56:16.681Z,13.30
2023-03-30T16:58:44.668Z,13.20
2023-03-30T17:01:15.815Z,13.10
2023-03-30T17:03:43.838Z,13.10
2023-03-30T17:06:11.885Z,13.00
2023-03-30T17:08:42.350Z,12.90
2023-03-30T17:11:13.527Z,12.80
2023-03-30T17:13:42.298Z,12.80
2023-03-30T17:16:12.629Z,12.80
2023-03-30T17:18:40.661Z,12.80
2023-03-30T17:21:10.579Z,12.70
2023-03-30T17:23:38.522Z,12.70
2023-03-30T17:26:07.745Z,12.60
2023-03-30T17:28:38.398Z,12.50
2023-03-30T17:31:10.647Z,12.40
2023-03-30T17:33:39.271Z,12.40
2023-03-30T17:36:13.419Z,12.20
2023-03-30T17:38:43.440Z,12.20
2023-03-30T17:41:13.212Z,12.20
2023-03-30T17:43:43.547Z,12.20
2023-03-30T17:46:13.525Z,12.30
2023-03-30T17:48:41.784Z,12.30
2023-03-30T17:51:09.742Z,12.30
2023-03-30T17:53:37.895Z,12.30
2023-03-30T17:56:06.377Z,12.30
2023-03-30T17:58:36.175Z,12.40
2023-03-30T18:01:08.955Z,12.40
2023-03-30T18:03:38.569Z,12.40
2023-03-30T18:06:06.875Z,12.40
2023-03-30T18:08:36.003Z,12.40
2023-03-30T18:11:05.067Z,12.30
2023-03-30T18:13:33.353Z,12.30
2023-03-30T18:16:02.137Z,12.30
2023-03-30T18:18:32.275Z,12.30
2023-03-30T18:21:03.736Z,12.10
2023-03-30T18:23:33.516Z,11.90
2023-03-30T18:26:01.947Z,11.70
2023-03-30T18:28:31.477Z,11.70
2023-03-30T18:31:00.902Z,11.60
2023-03-30T18:33:29.272Z,11.50
2023-03-30T18:36:04.616Z,11.50
2023-03-30T18:38:33.321Z,11.40
2023-03-30T18:41:01.681Z,11.40
2023-03-30T18:43:29.920Z,11.30
2023-03-30T18:46:01.828Z,11.20
2023-03-30T18:48:30.602Z,11.20
2023-03-30T18:50:59.949Z,11.10
2023-03-30T18:53:29.428Z,11.00
2023-03-30T18:56:00.707Z,11.00
2023-03-30T18:58:33.506Z,11.00
2023-03-30T19:01:01.914Z,11.00
2023-03-30T19:03:30.273Z,11.00
2023-03-30T19:05:59.746Z,10.90
2023-03-30T19:08:28.745Z,10.90
2023-03-30T19:10:58.238Z,11.00
2023-03-30T19:13:27.431Z,11.00
2023-03-30T19:15:55.666Z,10.90
2023-03-30T19:18:23.603Z,10.80
2023-03-30T19:20:51.933Z,10.80
2023-03-30T19:23:22.495Z,10.80
2023-03-30T19:25:50.798Z,10.90
2023-03-30T19:28:19.821Z,10.90
2023-03-30T19:30:48.378Z,10.90
2023-03-30T19:33:19.739Z,10.90
2023-03-30T19:35:48.481Z,10.90
2023-03-30T19:38:16.800Z,10.90
2023-03-30T19:40:46.139Z,10.90
2023-03-30T19:43:14.131Z,10.90
2023-03-30T19:45:42.200Z,10.90
2023-03-30T19:48:10.738Z,10.90
2023-03-30T19:50:40.722Z,10.90
2023-03-30T19:53:09.469Z,10.90
2023-03-30T19:55:37.953Z,10.90
2023-03-30T19:58:07.479Z,10.90
2023-03-30T20:00:35.436Z,10.90
2023-03-30T20:03:03.979Z,11.00
2023-03-30T20:05:32.454Z,11.00
2023-03-30T20:08:05.716Z,11.00
2023-03-30T20:10:38.761Z,11.00
2023-03-30T20:13:08.051Z,11.00
2023-03-30T20:15:36.345Z,11.00
2023-03-30T20:18:04.437Z,11.00
2023-03-30T20:20:34.848Z,11.00
2023-03-30T20:23:03.999Z,10.90
2023-03-30T20:25:31.996Z,10.90
2023-03-30T20:27:59.951Z,10.90
2023-03-30T20:30:29.464Z,10.90
2023-03-30T20:33:07.472Z,10.90
2023-03-30T20:35:37.150Z,10.90
2023-03-30T20:38:05.489Z,10.90
2023-03-30T20:40:33.746Z,10.90
2023-03-30T20:43:03.223Z,11.00
2023-03-30T20:45:34.538Z,10.90
2023-03-30T20:48:06.040Z,10.90
2023-03-30T20:50:34.975Z,10.90
2023-03-30T20:53:02.947Z,10.90
2023-03-30T20:55:30.971Z,10.90
2023-03-30T20:57:58.911Z,10.90
2023-03-30T21:00:27.466Z,10.90
2023-03-30T21:02:56.830Z,10.80
2023-03-30T21:05:24.825Z,10.80
2023-03-30T21:07:54.068Z,10.80
2023-03-30T21:10:22.617Z,10.70
2023-03-30T21:12:50.688Z,10.60
2023-03-30T21:15:19.043Z,10.50
2023-03-30T21:17:47.006Z,10.50
2023-03-30T21:20:16.417Z,10.40
2023-03-30T21:22:45.385Z,10.30
2023-03-30T21:25:13.984Z,10.30
2023-03-30T21:27:41.946Z,10.30
2023-03-30T21:30:13.313Z,10.30
2023-03-30T21:32:41.354Z,10.30
2023-03-30T21:35:09.746Z,10.20
2023-03-30T21:37:39.014Z,10.30
2023-03-30T21:40:08.652Z,10.30
2023-03-30T21:42:36.631Z,10.40
2023-03-30T21:45:05.033Z,10.50
2023-03-30T21:47:32.996Z,10.40
2023-03-30T21:50:00.985Z,10.50
2023-03-30T21:52:29.458Z,10.50
2023-03-30T21:54:58.814Z,10.60
2023-03-30T21:57:26.848Z,10.60
2023-03-30T21:59:54.796Z,10.70
2023-03-30T22:02:22.895Z,10.70
2023-03-30T22:04:51.051Z,10.70
2023-03-30T22:07:19.058Z,10.70
2023-03-30T22:09:47.004Z,10.70
2023-03-30T22:12:17.623Z,10.80
2023-03-30T22:14:45.604Z,10.80
2023-03-30T22:17:13.556Z,10.70
2023-03-30T22:19:43.914Z,10.70
2023-03-30T22:22:11.886Z,10.80
2023-03-30T22:24:39.957Z,10.80
2023-03-30T22:27:08.899Z,10.80
2023-03-30T22:29:38.218Z,10.70
2023-03-30T22:32:07.092Z,10.70
2023-03-30T22:34:35.240Z,10.70
2023-03-30T22:37:04.038Z,10.80
2023-03-30T22:39:31.962Z,10.70
2023-03-30T22:41:59.910Z,10.70
2023-03-30T22:44:28.500Z,10.70
2023-03-30T22:46:57.814Z,10.70
2023-03-30T22:49:25.883Z,10.70
2023-03-30T22:51:54.053Z,10.70
2023-03-30T22:54:22.076Z,10.70
2023-03-30T22:56:50.097Z,10.70
2023-03-30T22:59:18.094Z,10.60
2023-03-30T23:01:46.123Z,10.50
2023-03-30T23:04:15.851Z,10.50
2023-03-30T23:06:43.928Z,10.50
2023-03-30T23:09:13.594Z,10.40
2023-03-30T23:11:45.883Z,10.40
2023-03-30T23:14:14.382Z,10.40
2023-03-30T23:16:42.508Z,10.40
2023-03-30T23:19:12.097Z,10.30
2023-03-30T23:21:41.460Z,10.30
2023-03-30T23:24:12.146Z,10.30
2023-03-30T23:26:40.104Z,10.20
2023-03-30T23:29:08.341Z,10.30
2023-03-30T23:31:36.655Z,10.30
2023-03-30T23:34:04.658Z,10.30
2023-03-30T23:36:32.608Z,10.40
2023-03-30T23:39:01.950Z,10.40
2023-03-30T23:41:30.018Z,10.50
2023-03-30T23:43:57.957Z,10.50
2023-03-30T23:46:26.036Z,10.50
2023-03-30T23:48:54.022Z,10.50
2023-03-30T23:51:21.987Z,10.50
2023-03-30T23:53:54.261Z,10.50
2023-03-30T23:56:27.837Z,10.50
2023-03-30T23:58:56.761Z,10.50
